sensor_id;sensor_type;location;lat;lon;timestamp;pressure;altitude;pressure_sealevel;temperature;humidity
49611;BME280;35515;48.766;9.176;2023-05-01T00:01:24;98306.91;;;11.29;75.84
49611;BME280;35515;48.766;9.176;2023-05-01T00:03:52;98302.94;;;11.25;76.33
49611;BME280;35515;48.766;9.176;2023-05-01T00:06:19;98299.19;;;11.26;77.35
49611;BME280;35515;48.766;9.176;2023-05-01T00:08:45;98298.38;;;11.25;77.41
49611;BME280;35515;48.766;9.176;2023-05-01T00:11:12;98297.34;;;11.19;77.06
49611;BME280;35515;48.766;9.176;2023-05-01T00:13:38;98289.63;;;11.23;77.00
49611;BME280;35515;48.766;9.176;2023-05-01T00:16:07;98286.50;;;11.19;77.43
49611;BME280;35515;48.766;9.176;2023-05-01T00:18:33;98287.56;;;11.18;77.42
49611;BME280;35515;48.766;9.176;2023-05-01T00:21:01;98282.53;;;11.22;77.43
49611;BME280;35515;48.766;9.176;2023-05-01T00:23:28;98276.72;;;11.18;77.73
49611;BME280;35515;48.766;9.176;2023-05-01T00:25:55;98282.97;;;11.19;77.71
49611;BME280;35515;48.766;9.176;2023-05-01T00:28:21;98276.06;;;11.23;77.21
49611;BME280;35515;48.766;9.176;2023-05-01T00:30:48;98281.25;;;11.25;77.06
49611;BME280;35515;48.766;9.176;2023-05-01T00:33:14;98277.13;;;11.15;77.45
49611;BME280;35515;48.766;9.176;2023-05-01T00:35:42;98265.69;;;11.13;77.17
49611;BME280;35515;48.766;9.176;2023-05-01T00:38:10;98272.94;;;11.19;77.03
49611;BME280;35515;48.766;9.176;2023-05-01T00:40:43;98275.06;;;11.11;77.66
49611;BME280;35515;48.766;9.176;2023-05-01T00:43:09;98266.72;;;11.12;77.91
49611;BME280;35515;48.766;9.176;2023-05-01T00:45:37;98262.13;;;11.06;78.62
49611;BME280;35515;48.766;9.176;2023-05-01T00:48:04;98259.88;;;11.03;78.33
49611;BME280;35515;48.766;9.176;2023-05-01T00:50:31;98257.16;;;11.03;78.57
49611;BME280;35515;48.766;9.176;2023-05-01T00:52:57;98258.81;;;11.04;78.17
49611;BME280;35515;48.766;9.176;2023-05-01T00:55:27;98253.00;;;10.94;79.26
49611;BME280;35515;48.766;9.176;2023-05-01T00:57:55;98247.78;;;10.99;78.85
49611;BME280;35515;48.766;9.176;2023-05-01T01:00:22;98247.78;;;10.99;79.58
49611;BME280;35515;48.766;9.176;2023-05-01T01:02:49;98245.50;;;10.96;79.21
49611;BME280;35515;48.766;9.176;2023-05-01T01:05:15;98251.56;;;10.91;79.45
49611;BME280;35515;48.766;9.176;2023-05-01T01:07:48;98240.94;;;10.90;79.43
49611;BME280;35515;48.766;9.176;2023-05-01T01:10:29;98240.31;;;10.87;80.01
49611;BME280;35515;48.766;9.176;2023-05-01T01:13:01;98238.91;;;10.78;80.35
49611;BME280;35515;48.766;9.176;2023-05-01T01:15:33;98231.78;;;10.91;79.49
49611;BME280;35515;48.766;9.176;2023-05-01T01:18:07;98229.47;;;10.87;80.21
49611;BME280;35515;48.766;9.176;2023-05-01T01:20:37;98228.88;;;10.79;79.98
49611;BME280;35515;48.766;9.176;2023-05-01T01:23:25;98232.22;;;10.74;80.39
49611;BME280;35515;48.766;9.176;2023-05-01T01:26:22;98226.41;;;10.70;80.30
49611;BME280;35515;48.766;9.176;2023-05-01T01:29:14;98221.16;;;10.82;79.77
49611;BME280;35515;48.766;9.176;2023-05-01T01:31:52;98227.84;;;10.80;79.53
49611;BME280;35515;48.766;9.176;2023-05-01T01:34:25;98222.84;;;10.77;79.83
49611;BME280;35515;48.766;9.176;2023-05-01T01:36:58;98223.03;;;10.82;79.08
49611;BME280;35515;48.766;9.176;2023-05-01T01:39:29;98231.41;;;10.74;79.50
49611;BME280;35515;48.766;9.176;2023-05-01T01:42:05;98229.53;;;10.61;80.42
49611;BME280;35515;48.766;9.176;2023-05-01T01:44:37;98225.78;;;10.62;80.75
49611;BME280;35515;48.766;9.176;2023-05-01T01:47:08;98232.06;;;10.62;80.99
49611;BME280;35515;48.766;9.176;2023-05-01T01:49:38;98221.84;;;10.58;81.32
49611;BME280;35515;48.766;9.176;2023-05-01T01:52:06;98222.66;;;10.58;81.32
49611;BME280;35515;48.766;9.176;2023-05-01T01:54:36;98217.66;;;10.62;81.25
49611;BME280;35515;48.766;9.176;2023-05-01T01:57:06;98216.84;;;10.61;81.55
49611;BME280;35515;48.766;9.176;2023-05-01T01:59:33;98211.44;;;10.54;82.32
49611;BME280;35515;48.766;9.176;2023-05-01T02:02:01;98211.22;;;10.56;82.07
49611;BME280;35515;48.766;9.176;2023-05-01T02:04:29;98204.34;;;10.60;82.03
49611;BME280;35515;48.766;9.176;2023-05-01T02:06:59;98209.31;;;10.63;82.25
49611;BME280;35515;48.766;9.176;2023-05-01T02:09:27;98199.56;;;10.56;82.36
49611;BME280;35515;48.766;9.176;2023-05-01T02:11:55;98202.44;;;10.61;81.90
49611;BME280;35515;48.766;9.176;2023-05-01T02:14:25;98195.97;;;10.68;81.51
49611;BME280;35515;48.766;9.176;2023-05-01T02:16:52;98190.59;;;10.62;81.88
49611;BME280;35515;48.766;9.176;2023-05-01T02:19:20;98198.09;;;10.60;81.72
49611;BME280;35515;48.766;9.176;2023-05-01T02:21:48;98186.41;;;10.59;81.80
49611;BME280;35515;48.766;9.176;2023-05-01T02:24:18;98196.00;;;10.62;81.91
49611;BME280;35515;48.766;9.176;2023-05-01T02:26:50;98191.84;;;10.59;82.26
49611;BME280;35515;48.766;9.176;2023-05-01T02:29:19;98191.81;;;10.66;81.74
49611;BME280;35515;48.766;9.176;2023-05-01T02:31:46;98188.06;;;10.67;81.74
49611;BME280;35515;48.766;9.176;2023-05-01T02:34:12;98186.19;;;10.67;81.52
49611;BME280;35515;48.766;9.176;2023-05-01T02:36:39;98186.81;;;10.69;81.33
49611;BME280;35515;48.766;9.176;2023-05-01T02:39:05;98180.16;;;10.65;81.83
49611;BME280;35515;48.766;9.176;2023-05-01T02:41:34;98176.00;;;10.63;82.36
49611;BME280;35515;48.766;9.176;2023-05-01T02:44:03;98170.59;;;10.63;82.08
49611;BME280;35515;48.766;9.176;2023-05-01T02:46:33;98171.00;;;10.66;81.86
49611;BME280;35515;48.766;9.176;2023-05-01T02:49:02;98160.97;;;10.67;81.62
49611;BME280;35515;48.766;9.176;2023-05-01T02:51:29;98169.75;;;10.62;82.51
49611;BME280;35515;48.766;9.176;2023-05-01T02:53:57;98164.72;;;10.66;82.16
49611;BME280;35515;48.766;9.176;2023-05-01T02:56:24;98167.44;;;10.66;81.87
49611;BME280;35515;48.766;9.176;2023-05-01T02:58:53;98162.00;;;10.66;82.17
49611;BME280;35515;48.766;9.176;2023-05-01T03:01:20;98164.31;;;10.69;82.62
49611;BME280;35515;48.766;9.176;2023-05-01T03:03:47;98168.09;;;10.61;82.56
49611;BME280;35515;48.766;9.176;2023-05-01T03:06:13;98163.69;;;10.67;82.89
49611;BME280;35515;48.766;9.176;2023-05-01T03:08:40;98159.72;;;10.69;82.00
49611;BME280;35515;48.766;9.176;2023-05-01T03:11:07;98160.53;;;10.70;82.33
49611;BME280;35515;48.766;9.176;2023-05-01T03:13:34;98159.53;;;10.64;82.46
49611;BME280;35515;48.766;9.176;2023-05-01T03:16:02;98166.84;;;10.64;82.44
49611;BME280;35515;48.766;9.176;2023-05-01T03:18:29;98168.09;;;10.54;83.33
49611;BME280;35515;48.766;9.176;2023-05-01T03:20:56;98160.19;;;10.60;83.10
49611;BME280;35515;48.766;9.176;2023-05-01T03:23:22;98153.50;;;10.62;83.61
49611;BME280;35515;48.766;9.176;2023-05-01T03:25:49;98161.63;;;10.62;83.18
49611;BME280;35515;48.766;9.176;2023-05-01T03:28:16;98165.59;;;10.60;83.23
49611;BME280;35515;48.766;9.176;2023-05-01T03:30:43;98162.25;;;10.58;83.56
49611;BME280;35515;48.766;9.176;2023-05-01T03:33:11;98153.69;;;10.61;83.25
49611;BME280;35515;48.766;9.176;2023-05-01T03:35:37;98146.00;;;10.58;84.10
49611;BME280;35515;48.766;9.176;2023-05-01T03:38:04;98154.31;;;10.63;83.29
49611;BME280;35515;48.766;9.176;2023-05-01T03:40:31;98143.94;;;10.60;83.62
49611;BME280;35515;48.766;9.176;2023-05-01T03:42:57;98147.00;;;10.63;83.26
49611;BME280;35515;48.766;9.176;2023-05-01T03:45:24;98143.50;;;10.63;82.78
49611;BME280;35515;48.766;9.176;2023-05-01T03:47:50;98148.50;;;10.52;83.39
49611;BME280;35515;48.766;9.176;2023-05-01T03:50:18;98131.84;;;10.56;83.53
49611;BME280;35515;48.766;9.176;2023-05-01T03:52:45;98133.69;;;10.62;83.74
49611;BME280;35515;48.766;9.176;2023-05-01T03:55:11;98132.88;;;10.61;83.31
49611;BME280;35515;48.766;9.176;2023-05-01T03:57:38;98132.69;;;10.56;84.31
49611;BME280;35515;48.766;9.176;2023-05-01T04:00:08;98131.41;;;10.59;83.79
49611;BME280;35515;48.766;9.176;2023-05-01T04:02:35;98135.16;;;10.58;84.58
49611;BME280;35515;48.766;9.176;2023-05-01T04:05:03;98137.88;;;10.58;84.03
49611;BME280;35515;48.766;9.176;2023-05-01T04:07:30;98133.09;;;10.60;84.38
49611;BME280;35515;48.766;9.176;2023-05-01T04:09:57;98133.50;;;10.57;84.50
49611;BME280;35515;48.766;9.176;2023-05-01T04:12:23;98134.31;;;10.64;84.25
49611;BME280;35515;48.766;9.176;2023-05-01T04:14:50;98130.53;;;10.65;84.22
49611;BME280;35515;48.766;9.176;2023-05-01T04:17:16;98131.81;;;10.69;84.06
49611;BME280;35515;48.766;9.176;2023-05-01T04:19:43;98123.69;;;10.69;84.15
49611;BME280;35515;48.766;9.176;2023-05-01T04:22:12;98130.53;;;10.65;84.50
49611;BME280;35515;48.766;9.176;2023-05-01T04:24:40;98130.94;;;10.68;84.56
49611;BME280;35515;48.766;9.176;2023-05-01T04:27:06;98139.28;;;10.74;84.67
49611;BME280;35515;48.766;9.176;2023-05-01T04:29:33;98134.91;;;10.73;84.32
49611;BME280;35515;48.766;9.176;2023-05-01T04:32:00;98129.69;;;10.71;84.68
49611;BME280;35515;48.766;9.176;2023-05-01T04:34:26;98131.38;;;10.72;84.23
49611;BME280;35515;48.766;9.176;2023-05-01T04:36:53;98135.56;;;10.68;85.04
49611;BME280;35515;48.766;9.176;2023-05-01T04:39:21;98135.13;;;10.71;84.91
49611;BME280;35515;48.766;9.176;2023-05-01T04:41:49;98135.31;;;10.76;85.07
49611;BME280;35515;48.766;9.176;2023-05-01T04:44:16;98129.22;;;10.81;84.30
49611;BME280;35515;48.766;9.176;2023-05-01T04:46:42;98136.53;;;10.80;84.60
49611;BME280;35515;48.766;9.176;2023-05-01T04:49:09;98133.63;;;10.75;84.44
49611;BME280;35515;48.766;9.176;2023-05-01T04:51:35;98129.25;;;10.74;85.18
49611;BME280;35515;48.766;9.176;2023-05-01T04:54:02;98137.00;;;10.70;85.30
49611;BME280;35515;48.766;9.176;2023-05-01T04:56:29;98140.09;;;10.74;85.43
49611;BME280;35515;48.766;9.176;2023-05-01T04:58:57;98135.75;;;10.73;85.34
49611;BME280;35515;48.766;9.176;2023-05-01T05:01:24;98133.41;;;10.77;85.39
49611;BME280;35515;48.766;9.176;2023-05-01T05:03:50;98140.94;;;10.75;85.45
49611;BME280;35515;48.766;9.176;2023-05-01T05:06:17;98136.97;;;10.77;85.87
49611;BME280;35515;48.766;9.176;2023-05-01T05:08:44;98140.91;;;10.81;85.28
49611;BME280;35515;48.766;9.176;2023-05-01T05:11:10;98144.03;;;10.85;85.47
49611;BME280;35515;48.766;9.176;2023-05-01T05:13:37;98137.97;;;10.83;85.87
49611;BME280;35515;48.766;9.176;2023-05-01T05:16:05;98138.00;;;10.76;86.36
49611;BME280;35515;48.766;9.176;2023-05-01T05:18:32;98139.88;;;10.82;85.64
49611;BME280;35515;48.766;9.176;2023-05-01T05:21:02;98142.38;;;10.84;85.19
49611;BME280;35515;48.766;9.176;2023-05-01T05:23:29;98136.28;;;10.88;84.35
49611;BME280;35515;48.766;9.176;2023-05-01T05:25:55;98136.09;;;10.83;85.27
49611;BME280;35515;48.766;9.176;2023-05-01T05:28:24;98126.97;;;10.78;85.55
49611;BME280;35515;48.766;9.176;2023-05-01T05:30:50;98143.44;;;10.76;86.11
49611;BME280;35515;48.766;9.176;2023-05-01T05:33:18;98136.78;;;10.72;86.09
49611;BME280;35515;48.766;9.176;2023-05-01T05:35:45;98143.63;;;10.81;85.91
49611;BME280;35515;48.766;9.176;2023-05-01T05:38:11;98142.16;;;10.85;85.60
49611;BME280;35515;48.766;9.176;2023-05-01T05:40:38;98136.28;;;10.88;85.21
49611;BME280;35515;48.766;9.176;2023-05-01T05:43:05;98140.88;;;10.88;85.61
49611;BME280;35515;48.766;9.176;2023-05-01T05:45:32;98139.00;;;10.88;85.83
49611;BME280;35515;48.766;9.176;2023-05-01T05:47:59;98152.53;;;10.88;86.01
49611;BME280;35515;48.766;9.176;2023-05-01T05:50:27;98146.31;;;10.88;86.61
49611;BME280;35515;48.766;9.176;2023-05-01T05:52:54;98145.06;;;10.84;87.87
49611;BME280;35515;48.766;9.176;2023-05-01T05:55:20;98152.94;;;10.92;87.33
49611;BME280;35515;48.766;9.176;2023-05-01T05:57:47;98145.44;;;10.87;88.32
49611;BME280;35515;48.766;9.176;2023-05-01T06:00:14;98145.03;;;10.91;88.62
49611;BME280;35515;48.766;9.176;2023-05-01T06:02:41;98150.88;;;10.87;88.86
49611;BME280;35515;48.766;9.176;2023-05-01T06:05:08;98139.00;;;10.88;88.99
49611;BME280;35515;48.766;9.176;2023-05-01T06:07:36;98139.63;;;10.91;89.04
49611;BME280;35515;48.766;9.176;2023-05-01T06:10:03;98145.44;;;10.87;88.21
49611;BME280;35515;48.766;9.176;2023-05-01T06:12:30;98137.94;;;10.90;88.46
49611;BME280;35515;48.766;9.176;2023-05-01T06:14:57;98145.03;;;10.91;88.58
49611;BME280;35515;48.766;9.176;2023-05-01T06:17:24;98137.72;;;10.91;89.62
49611;BME280;35515;48.766;9.176;2023-05-01T06:19:51;98141.28;;;10.92;89.97
49611;BME280;35515;48.766;9.176;2023-05-01T06:22:17;98144.16;;;10.97;90.04
49611;BME280;35515;48.766;9.176;2023-05-01T06:24:45;98144.56;;;11.00;89.72
49611;BME280;35515;48.766;9.176;2023-05-01T06:27:12;98140.22;;;10.93;90.67
49611;BME280;35515;48.766;9.176;2023-05-01T06:29:38;98146.28;;;10.95;91.69
49611;BME280;35515;48.766;9.176;2023-05-01T06:32:05;98136.03;;;10.97;92.34
49611;BME280;35515;48.766;9.176;2023-05-01T06:34:32;98142.28;;;10.97;92.69
49611;BME280;35515;48.766;9.176;2023-05-01T06:36:58;98147.06;;;11.02;91.34
49611;BME280;35515;48.766;9.176;2023-05-01T06:39:25;98153.53;;;11.01;92.05
49611;BME280;35515;48.766;9.176;2023-05-01T06:41:53;98147.88;;;11.09;91.84
49611;BME280;35515;48.766;9.176;2023-05-01T06:44:19;98151.22;;;11.04;91.50
49611;BME280;35515;48.766;9.176;2023-05-01T06:46:46;98153.94;;;11.04;92.99
49611;BME280;35515;48.766;9.176;2023-05-01T06:49:12;98153.50;;;11.08;94.34
49611;BME280;35515;48.766;9.176;2023-05-01T06:51:39;98158.72;;;11.09;92.09
49611;BME280;35515;48.766;9.176;2023-05-01T06:54:05;98161.19;;;11.11;92.33
49611;BME280;35515;48.766;9.176;2023-05-01T06:56:32;98158.50;;;11.11;93.79
49611;BME280;35515;48.766;9.176;2023-05-01T06:59:00;98159.09;;;11.13;92.38
49611;BME280;35515;48.766;9.176;2023-05-01T07:01:28;98173.06;;;11.16;91.66
49611;BME280;35515;48.766;9.176;2023-05-01T07:03:55;98172.59;;;11.19;91.60
49611;BME280;35515;48.766;9.176;2023-05-01T07:06:21;98157.56;;;11.30;90.35
49611;BME280;35515;48.766;9.176;2023-05-01T07:08:48;98166.31;;;11.26;92.39
49611;BME280;35515;48.766;9.176;2023-05-01T07:11:15;98165.91;;;11.22;88.99
49611;BME280;35515;48.766;9.176;2023-05-01T07:13:42;98170.66;;;11.33;87.89
49611;BME280;35515;48.766;9.176;2023-05-01T07:16:10;98166.06;;;11.34;87.31
49611;BME280;35515;48.766;9.176;2023-05-01T07:18:37;98168.50;;;11.42;85.94
49611;BME280;35515;48.766;9.176;2023-05-01T07:21:04;98166.88;;;11.41;84.92
49611;BME280;35515;48.766;9.176;2023-05-01T07:23:30;98180.97;;;11.50;84.53
49611;BME280;35515;48.766;9.176;2023-05-01T07:25:57;98169.75;;;11.46;83.21
49611;BME280;35515;48.766;9.176;2023-05-01T07:28:24;98160.81;;;11.39;84.30
49611;BME280;35515;48.766;9.176;2023-05-01T07:30:50;98164.72;;;11.50;84.95
49611;BME280;35515;48.766;9.176;2023-05-01T07:33:18;98171.81;;;11.51;83.41
49611;BME280;35515;48.766;9.176;2023-05-01T07:35:45;98163.22;;;11.54;83.16
49611;BME280;35515;48.766;9.176;2023-05-01T07:38:11;98164.88;;;11.55;82.96
49611;BME280;35515;48.766;9.176;2023-05-01T07:40:39;98158.38;;;11.63;81.85
49611;BME280;35515;48.766;9.176;2023-05-01T07:43:05;98160.44;;;11.61;81.73
49611;BME280;35515;48.766;9.176;2023-05-01T07:45:35;98161.19;;;11.75;82.14
49611;BME280;35515;48.766;9.176;2023-05-01T07:48:02;98162.97;;;11.87;82.35
49611;BME280;35515;48.766;9.176;2023-05-01T07:50:30;98161.47;;;11.92;82.10
49611;BME280;35515;48.766;9.176;2023-05-01T07:52:57;98158.53;;;11.93;80.75
49611;BME280;35515;48.766;9.176;2023-05-01T07:55:24;98154.38;;;11.91;80.74
49611;BME280;35515;48.766;9.176;2023-05-01T07:57:50;98147.25;;;11.96;80.91
49611;BME280;35515;48.766;9.176;2023-05-01T08:00:17;98141.84;;;11.96;79.89
49611;BME280;35515;48.766;9.176;2023-05-01T08:02:44;98149.31;;;12.01;79.98
49611;BME280;35515;48.766;9.176;2023-05-01T08:05:10;98156.84;;;11.99;78.80
49611;BME280;35515;48.766;9.176;2023-05-01T08:07:38;98150.63;;;11.92;78.52
49611;BME280;35515;48.766;9.176;2023-05-01T08:10:05;98142.22;;;12.00;78.81
49611;BME280;35515;48.766;9.176;2023-05-01T08:12:32;98153.25;;;12.05;78.57
49611;BME280;35515;48.766;9.176;2023-05-01T08:14:59;98145.13;;;12.24;77.66
49611;BME280;35515;48.766;9.176;2023-05-01T08:17:25;98152.19;;;12.25;76.41
49611;BME280;35515;48.766;9.176;2023-05-01T08:19:52;98147.53;;;12.13;79.62
49611;BME280;35515;48.766;9.176;2023-05-01T08:22:21;98149.94;;;12.21;77.68
49611;BME280;35515;48.766;9.176;2023-05-01T08:24:49;98144.50;;;12.21;78.69
49611;BME280;35515;48.766;9.176;2023-05-01T08:27:15;98150.41;;;12.18;78.58
49611;BME280;35515;48.766;9.176;2023-05-01T08:29:42;98147.22;;;12.21;79.33
49611;BME280;35515;48.766;9.176;2023-05-01T08:32:08;98136.75;;;12.25;80.30
49611;BME280;35515;48.766;9.176;2023-05-01T08:34:35;98144.47;;;12.47;79.48
49611;BME280;35515;48.766;9.176;2023-05-01T08:37:02;98140.47;;;12.49;79.12
49611;BME280;35515;48.766;9.176;2023-05-01T08:39:28;98148.78;;;12.54;78.66
49611;BME280;35515;48.766;9.176;2023-05-01T08:41:56;98131.78;;;12.59;78.30
49611;BME280;35515;48.766;9.176;2023-05-01T08:44:25;98132.16;;;12.63;78.47
49611;BME280;35515;48.766;9.176;2023-05-01T08:47:03;98129.34;;;12.69;79.56
49611;BME280;35515;48.766;9.176;2023-05-01T08:49:32;98124.75;;;12.70;79.42
49611;BME280;35515;48.766;9.176;2023-05-01T08:52:00;98128.13;;;12.84;78.25
49611;BME280;35515;48.766;9.176;2023-05-01T08:54:28;98120.94;;;12.90;77.18
49611;BME280;35515;48.766;9.176;2023-05-01T08:56:59;98130.47;;;12.80;76.70
49611;BME280;35515;48.766;9.176;2023-05-01T08:59:27;98138.06;;;12.90;77.07
49611;BME280;35515;48.766;9.176;2023-05-01T09:01:59;98131.78;;;13.08;75.69
49611;BME280;35515;48.766;9.176;2023-05-01T09:04:28;98131.31;;;13.11;78.02
49611;BME280;35515;48.766;9.176;2023-05-01T09:06:57;98133.63;;;13.26;78.21
49611;BME280;35515;48.766;9.176;2023-05-01T09:09:25;98128.09;;;13.33;79.03
49611;BME280;35515;48.766;9.176;2023-05-01T09:11:51;98133.56;;;13.45;80.98
49611;BME280;35515;48.766;9.176;2023-05-01T09:14:20;98125.97;;;13.35;77.26
49611;BME280;35515;48.766;9.176;2023-05-01T09:16:47;98131.25;;;13.30;79.10
49611;BME280;35515;48.766;9.176;2023-05-01T09:19:14;98131.97;;;13.25;81.89
49611;BME280;35515;48.766;9.176;2023-05-01T09:21:41;98128.19;;;13.26;82.13
49611;BME280;35515;48.766;9.176;2023-05-01T09:24:07;98131.34;;;13.23;81.34
49611;BME280;35515;48.766;9.176;2023-05-01T09:26:34;98122.97;;;13.25;80.33
49611;BME280;35515;48.766;9.176;2023-05-01T09:29:04;98128.84;;;13.40;77.44
49611;BME280;35515;48.766;9.176;2023-05-01T09:31:32;98125.06;;;13.41;79.77
49611;BME280;35515;48.766;9.176;2023-05-01T09:34:00;98128.84;;;13.40;76.07
49611;BME280;35515;48.766;9.176;2023-05-01T09:36:28;98131.41;;;13.35;80.82
49611;BME280;35515;48.766;9.176;2023-05-01T09:38:55;98128.84;;;13.40;76.55
49611;BME280;35515;48.766;9.176;2023-05-01T09:41:22;98124.97;;;13.48;76.65
49611;BME280;35515;48.766;9.176;2023-05-01T09:43:51;98132.91;;;13.49;79.97
49611;BME280;35515;48.766;9.176;2023-05-01T09:46:18;98124.03;;;13.66;76.16
49611;BME280;35515;48.766;9.176;2023-05-01T09:48:56;98121.09;;;13.79;74.08
49611;BME280;35515;48.766;9.176;2023-05-01T09:51:24;98121.09;;;13.79;76.07
49611;BME280;35515;48.766;9.176;2023-05-01T09:53:55;98115.44;;;13.93;73.90
49611;BME280;35515;48.766;9.176;2023-05-01T09:56:21;98120.78;;;13.87;75.55
49611;BME280;35515;48.766;9.176;2023-05-01T09:58:50;98123.13;;;13.84;77.18
49611;BME280;35515;48.766;9.176;2023-05-01T10:01:18;98128.69;;;13.89;75.53
49611;BME280;35515;48.766;9.176;2023-05-01T10:03:44;98123.59;;;13.93;77.27
49611;BME280;35515;48.766;9.176;2023-05-01T10:06:25;98130.94;;;13.92;76.72
49611;BME280;35515;48.766;9.176;2023-05-01T10:08:52;98130.34;;;13.90;76.45
49611;BME280;35515;48.766;9.176;2023-05-01T10:11:19;98128.09;;;13.87;76.57
49611;BME280;35515;48.766;9.176;2023-05-01T10:14:04;98130.81;;;13.87;76.66
49611;BME280;35515;48.766;9.176;2023-05-01T10:16:33;98124.69;;;13.92;74.95
49611;BME280;35515;48.766;9.176;2023-05-01T10:19:00;98131.75;;;13.93;74.03
49611;BME280;35515;48.766;9.176;2023-05-01T10:21:29;98127.84;;;13.77;76.21
49611;BME280;35515;48.766;9.176;2023-05-01T10:23:56;98124.91;;;13.78;74.78
49611;BME280;35515;48.766;9.176;2023-05-01T10:26:23;98131.41;;;13.77;75.83
49611;BME280;35515;48.766;9.176;2023-05-01T10:28:51;98135.56;;;13.80;75.99
49611;BME280;35515;48.766;9.176;2023-05-01T10:31:17;98131.16;;;13.79;75.34
49611;BME280;35515;48.766;9.176;2023-05-01T10:33:45;98130.34;;;13.78;75.07
49611;BME280;35515;48.766;9.176;2023-05-01T10:36:18;98135.09;;;13.95;73.45
49611;BME280;35515;48.766;9.176;2023-05-01T10:38:47;98131.75;;;13.93;74.19
49611;BME280;35515;48.766;9.176;2023-05-01T10:41:14;98130.81;;;13.99;73.54
49611;BME280;35515;48.766;9.176;2023-05-01T10:43:41;98129.41;;;14.08;73.64
49611;BME280;35515;48.766;9.176;2023-05-01T10:46:27;98129.66;;;13.95;74.01
49611;BME280;35515;48.766;9.176;2023-05-01T10:48:55;98137.34;;;13.98;74.48
49611;BME280;35515;48.766;9.176;2023-05-01T10:51:25;98131.53;;;14.06;73.28
49611;BME280;35515;48.766;9.176;2023-05-01T10:54:26;98124.09;;;14.13;72.13
49611;BME280;35515;48.766;9.176;2023-05-01T10:56:55;98127.16;;;14.05;73.69
49611;BME280;35515;48.766;9.176;2023-05-01T10:59:23;98120.19;;;14.09;73.21
49611;BME280;35515;48.766;9.176;2023-05-01T11:01:51;98124.91;;;14.26;73.39
49611;BME280;35515;48.766;9.176;2023-05-01T11:04:48;98124.19;;;14.42;73.73
49611;BME280;35515;48.766;9.176;2023-05-01T11:07:18;98121.22;;;14.44;70.87
49611;BME280;35515;48.766;9.176;2023-05-01T11:09:50;98116.72;;;14.37;70.65
49611;BME280;35515;48.766;9.176;2023-05-01T11:12:47;98116.25;;;14.29;71.59
49611;BME280;35515;48.766;9.176;2023-05-01T11:15:24;98105.13;;;14.30;70.34
49611;BME280;35515;48.766;9.176;2023-05-01T11:17:51;98106.88;;;14.25;71.33
49611;BME280;35515;48.766;9.176;2023-05-01T11:20:45;98116.34;;;14.34;70.63
49611;BME280;35515;48.766;9.176;2023-05-01T11:23:18;98108.66;;;14.31;71.31
49611;BME280;35515;48.766;9.176;2023-05-01T11:25:48;98102.16;;;14.32;69.85
49611;BME280;35515;48.766;9.176;2023-05-01T11:28:19;98104.50;;;14.40;70.47
49611;BME280;35515;48.766;9.176;2023-05-01T11:30:47;98107.13;;;14.35;70.03
49611;BME280;35515;48.766;9.176;2023-05-01T11:33:21;98105.56;;;14.51;69.30
49611;BME280;35515;48.766;9.176;2023-05-01T11:35:56;98109.03;;;14.34;71.36
49611;BME280;35515;48.766;9.176;2023-05-01T11:38:22;98102.53;;;14.35;71.43
49611;BME280;35515;48.766;9.176;2023-05-01T11:40:56;98097.75;;;14.43;69.89
49611;BME280;35515;48.766;9.176;2023-05-01T11:43:23;98104.25;;;14.42;69.10
49611;BME280;35515;48.766;9.176;2023-05-01T11:45:51;98098.94;;;14.47;70.55
49611;BME280;35515;48.766;9.176;2023-05-01T11:48:19;98103.66;;;14.51;70.97
49611;BME280;35515;48.766;9.176;2023-05-01T11:50:46;98104.88;;;14.44;70.74
49611;BME280;35515;48.766;9.176;2023-05-01T11:53:13;98105.69;;;14.44;71.00
49611;BME280;35515;48.766;9.176;2023-05-01T11:55:41;98100.47;;;14.54;69.12
49611;BME280;35515;48.766;9.176;2023-05-01T11:58:10;98099.41;;;14.55;70.03
49611;BME280;35515;48.766;9.176;2023-05-01T12:00:37;98105.41;;;14.58;70.73
49611;BME280;35515;48.766;9.176;2023-05-01T12:03:05;98098.78;;;14.65;68.83
49611;BME280;35515;48.766;9.176;2023-05-01T12:05:33;98097.13;;;14.52;70.91
49611;BME280;35515;48.766;9.176;2023-05-01T12:08:11;98105.91;;;14.66;69.26
49611;BME280;35515;48.766;9.176;2023-05-01T12:10:40;98098.06;;;14.70;69.53
49611;BME280;35515;48.766;9.176;2023-05-01T12:13:08;98098.06;;;14.70;69.17
49611;BME280;35515;48.766;9.176;2023-05-01T12:15:39;98093.31;;;14.77;68.97
49611;BME280;35515;48.766;9.176;2023-05-01T12:18:06;98089.97;;;14.75;69.36
49611;BME280;35515;48.766;9.176;2023-05-01T12:20:34;98090.97;;;14.69;70.26
49611;BME280;35515;48.766;9.176;2023-05-01T12:23:02;98084.53;;;14.75;68.97
49611;BME280;35515;48.766;9.176;2023-05-01T12:25:30;98095.00;;;14.95;67.90
49611;BME280;35515;48.766;9.176;2023-05-01T12:27:58;98098.63;;;14.84;67.86
49611;BME280;35515;48.766;9.176;2023-05-01T12:30:26;98089.97;;;14.75;68.44
49611;BME280;35515;48.766;9.176;2023-05-01T12:32:55;98083.97;;;14.73;68.80
49611;BME280;35515;48.766;9.176;2023-05-01T12:35:28;98096.72;;;14.84;67.71
49611;BME280;35515;48.766;9.176;2023-05-01T12:37:54;98090.94;;;14.81;68.61
49611;BME280;35515;48.766;9.176;2023-05-01T12:40:21;98089.41;;;14.73;69.78
49611;BME280;35515;48.766;9.176;2023-05-01T12:42:53;98089.41;;;14.73;69.27
49611;BME280;35515;48.766;9.176;2023-05-01T12:45:21;98093.81;;;14.74;69.84
49611;BME280;35515;48.766;9.176;2023-05-01T12:47:47;98091.00;;;14.86;68.91
49611;BME280;35515;48.766;9.176;2023-05-01T12:50:15;98090.28;;;14.91;68.27
49611;BME280;35515;48.766;9.176;2023-05-01T12:52:42;98090.28;;;14.91;68.10
49611;BME280;35515;48.766;9.176;2023-05-01T12:55:09;98086.75;;;14.90;68.06
49611;BME280;35515;48.766;9.176;2023-05-01T12:57:50;98086.41;;;14.86;69.16
49611;BME280;35515;48.766;9.176;2023-05-01T13:00:17;98093.97;;;14.84;69.07
49611;BME280;35515;48.766;9.176;2023-05-01T13:02:44;98082.22;;;14.96;67.25
49611;BME280;35515;48.766;9.176;2023-05-01T13:05:11;98084.25;;;14.88;67.70
49611;BME280;35515;48.766;9.176;2023-05-01T13:07:39;98084.44;;;14.99;67.75